Time;durP1;ratioP1;P1;durP2;ratioP2;P2;SDS_P1;SDS_P2;PMS_P1;PMS_P2;Temp;Humidity;BMP_temperature;BMP_pressure;BME280_temperature;BME280_humidity;BME280_pressure;Samples;Min_cycle;Max_cycle;Signal;HPM_P1;HPM_P2
2023/09/17 00:01:52;;;;;;;;;;;;;;;24.21;64.08;101931.59;5011913;28;20394;-82
2023/09/17 00:04:17;;;;;;;;;;;;;;;24.22;63.81;101930.72;5010990;28;19933;-81
2023/09/17 00:06:43;;;;;;;;;;;;;;;24.22;63.86;101928.06;5011823;28;19921;-83
2023/09/17 00:09:08;;;;;;;;;;;;;;;24.23;63.84;101923.63;5013685;28;19920;-82
2023/09/17 00:11:34;;;;;;;;;;;;;;;24.23;63.98;101924.50;5019362;28;19913;-83
2023/09/17 00:13:59;;;;;;;;;;;;;;;24.22;64.03;101921.84;5013567;28;20394;-83
2023/09/17 00:16:31;;;;;;;;;;;;;;;24.20;64.01;101919.13;5024281;28;19917;-82
2023/09/17 00:18:57;;;;;;;;;;;;;;;24.21;63.91;101920.00;5030290;28;19967;-82
2023/09/17 00:21:22;;;;;;;;;;;;;;;24.20;64.03;101912.91;5012576;28;19913;-82
2023/09/17 00:23:48;;;;;;;;;;;;;;;24.20;63.68;101910.22;5030014;28;19988;-82
2023/09/17 00:26:13;;;;;;;;;;;;;;;24.19;64.09;101909.31;5029427;28;19959;-82
2023/09/17 00:28:38;;;;;;;;;;;;;;;24.18;63.93;101903.06;5032228;28;19913;-82
2023/09/17 00:31:04;;;;;;;;;;;;;;;24.18;64.01;101900.41;5031781;28;19921;-82
2023/09/17 00:33:30;;;;;;;;;;;;;;;24.21;63.99;101904.00;5033361;28;20373;-83
2023/09/17 00:35:56;;;;;;;;;;;;;;;24.18;63.91;101904.84;5011616;28;19913;-82
2023/09/17 00:38:21;;;;;;;;;;;;;;;24.18;64.04;101900.41;5033901;28;20120;-82
2023/09/17 00:40:47;;;;;;;;;;;;;;;24.18;63.78;101905.75;5033755;28;19913;-82
2023/09/17 00:43:13;;;;;;;;;;;;;;;24.20;63.60;101904.88;5033237;28;20421;-83
2023/09/17 00:45:38;;;;;;;;;;;;;;;24.18;63.89;101904.84;5025393;28;20003;-82
2023/09/17 00:48:04;;;;;;;;;;;;;;;24.20;63.58;101902.22;5017631;28;20006;-81
2023/09/17 00:50:31;;;;;;;;;;;;;;;24.18;63.70;101907.53;5049157;28;20415;-81
2023/09/17 00:52:56;;;;;;;;;;;;;;;24.17;63.87;101906.63;5032399;28;19917;-82
2023/09/17 00:55:22;;;;;;;;;;;;;;;24.18;63.62;101900.41;5005071;28;20337;-82
2023/09/17 00:57:47;;;;;;;;;;;;;;;24.21;63.54;101901.34;5015297;28;20312;-81
2023/09/17 01:00:14;;;;;;;;;;;;;;;24.19;63.71;101901.28;5032333;28;20298;-81
2023/09/17 01:02:39;;;;;;;;;;;;;;;24.21;63.50;101898.66;5031904;28;19917;-81
2023/09/17 01:05:05;;;;;;;;;;;;;;;24.18;63.40;101892.41;5038156;28;19921;-81
2023/09/17 01:07:31;;;;;;;;;;;;;;;24.18;63.57;101884.41;5052345;28;19940;-82
2023/09/17 01:09:57;;;;;;;;;;;;;;;24.19;63.67;101887.94;5030738;28;19917;-82
2023/09/17 01:12:22;;;;;;;;;;;;;;;24.17;63.70;101885.28;5016254;28;19972;-82
2023/09/17 01:14:48;;;;;;;;;;;;;;;24.18;63.72;101883.50;5055639;28;19916;-81
2023/09/17 01:17:13;;;;;;;;;;;;;;;24.16;63.73;101878.13;5043014;28;19917;-81
2023/09/17 01:19:42;;;;;;;;;;;;;;;24.16;63.60;101880.81;5032805;28;20297;-81
2023/09/17 01:22:10;;;;;;;;;;;;;;;24.15;63.64;101879.03;5052183;28;19913;-81
2023/09/17 01:24:40;;;;;;;;;;;;;;;24.16;63.50;101879.91;5035460;28;19990;-82
2023/09/17 01:27:06;;;;;;;;;;;;;;;24.14;63.60;101877.22;5035876;28;20026;-82
2023/09/17 01:29:37;;;;;;;;;;;;;;;24.13;63.80;101877.19;5030754;28;20417;-82
2023/09/17 01:32:04;;;;;;;;;;;;;;;24.11;63.60;101879.84;5053587;28;19955;-82
2023/09/17 01:34:30;;;;;;;;;;;;;;;24.11;63.69;101871.84;5053235;28;20371;-82
2023/09/17 01:36:57;;;;;;;;;;;;;;;24.11;63.72;101879.84;5035275;28;19913;-82
2023/09/17 01:39:24;;;;;;;;;;;;;;;24.12;63.43;101872.72;5034433;28;20381;-82
2023/09/17 01:41:49;;;;;;;;;;;;;;;24.11;63.50;101878.97;5034579;28;20464;-83
2023/09/17 01:44:15;;;;;;;;;;;;;;;24.10;63.66;101886.03;5053161;28;20004;-83
2023/09/17 01:46:40;;;;;;;;;;;;;;;24.11;63.61;101879.84;5044454;28;20381;-83
2023/09/17 01:49:08;;;;;;;;;;;;;;;24.12;63.45;101883.41;5041026;28;19924;-83
2023/09/17 01:51:34;;;;;;;;;;;;;;;24.10;63.43;101883.38;5052218;28;19920;-82
2023/09/17 01:53:59;;;;;;;;;;;;;;;24.11;63.67;101889.63;5052459;28;19913;-82
2023/09/17 01:56:24;;;;;;;;;;;;;;;24.10;63.60;101885.16;5034466;28;19913;-82
2023/09/17 01:58:50;;;;;;;;;;;;;;;24.11;63.45;101894.97;5052669;28;20377;-83
2023/09/17 02:01:16;;;;;;;;;;;;;;;24.12;63.50;101888.75;5038913;28;20428;-83
2023/09/17 02:03:42;;;;;;;;;;;;;;;24.09;63.30;101880.69;5034034;28;20397;-82
2023/09/17 02:06:07;;;;;;;;;;;;;;;24.09;63.52;101892.25;5052219;28;19925;-82
2023/09/17 02:08:34;;;;;;;;;;;;;;;24.12;63.20;101891.41;5052685;28;19912;-83
2023/09/17 02:10:59;;;;;;;;;;;;;;;24.11;63.28;101885.19;5040537;28;20348;-83
2023/09/17 02:13:25;;;;;;;;;;;;;;;24.12;63.19;101889.63;5044534;28;19913;-83
2023/09/17 02:15:50;;;;;;;;;;;;;;;24.09;63.33;101894.94;5046184;28;19912;-83
2023/09/17 02:18:16;;;;;;;;;;;;;;;24.09;63.40;101889.59;5052481;28;19913;-83
2023/09/17 02:20:42;;;;;;;;;;;;;;;24.09;63.30;101883.38;5051773;28;20377;-82
2023/09/17 02:23:10;;;;;;;;;;;;;;;24.06;63.50;101893.97;5035016;28;19917;-82
2023/09/17 02:25:35;;;;;;;;;;;;;;;24.08;63.23;101893.13;5032263;28;20419;-82
2023/09/17 02:28:02;;;;;;;;;;;;;;;24.07;63.37;101893.13;5032528;28;19995;-81
2023/09/17 02:30:28;;;;;;;;;;;;;;;24.06;63.28;101897.53;5043210;28;19913;-82
2023/09/17 02:32:53;;;;;;;;;;;;;;;24.06;63.25;101888.63;5038884;28;19920;-82
2023/09/17 02:35:19;;;;;;;;;;;;;;;24.06;63.41;101893.97;5051821;28;19912;-80
2023/09/17 02:37:44;;;;;;;;;;;;;;;24.06;63.39;101888.63;5051684;28;20441;-81
2023/09/17 02:40:11;;;;;;;;;;;;;;;24.05;63.41;101892.19;5038634;28;20279;-81
2023/09/17 02:42:37;;;;;;;;;;;;;;;24.05;63.38;101885.09;5051789;28;19912;-83
2023/09/17 02:45:03;;;;;;;;;;;;;;;24.07;63.25;101885.13;5050248;28;19917;-83
2023/09/17 02:47:28;;;;;;;;;;;;;;;24.06;63.16;101877.97;5042556;28;20531;-82
2023/09/17 02:49:54;;;;;;;;;;;;;;;24.07;63.30;101888.66;5044681;28;19920;-82
2023/09/17 02:52:19;;;;;;;;;;;;;;;24.01;63.33;101883.22;5043807;28;19917;-81
2023/09/17 02:54:44;;;;;;;;;;;;;;;24.03;63.43;101884.16;5044616;28;20374;-81
2023/09/17 02:57:10;;;;;;;;;;;;;;;24.02;63.28;101885.00;5023717;28;20003;-82
2023/09/17 02:59:35;;;;;;;;;;;;;;;24.03;63.37;101884.16;5046206;28;20400;-82
2023/09/17 03:02:01;;;;;;;;;;;;;;;24.04;63.39;101877.03;5050067;28;19913;-81
2023/09/17 03:04:27;;;;;;;;;;;;;;;24.05;63.40;101879.75;5031107;28;19925;-82
2023/09/17 03:06:53;;;;;;;;;;;;;;;24.02;63.60;101878.78;5050517;28;20446;-82
2023/09/17 03:09:19;;;;;;;;;;;;;;;23.98;63.54;101880.50;5049106;28;19963;-83
2023/09/17 03:11:44;;;;;;;;;;;;;;;24.00;63.58;101883.19;5043575;28;19924;-84
2023/09/17 03:14:10;;;;;;;;;;;;;;;24.01;63.54;101880.56;5045220;28;20409;-83
2023/09/17 03:16:35;;;;;;;;;;;;;;;24.02;63.48;101885.00;5044617;28;20495;-84
2023/09/17 03:19:01;;;;;;;;;;;;;;;24.03;63.53;101878.81;5043055;28;19957;-83
2023/09/17 03:21:26;;;;;;;;;;;;;;;24.01;63.51;101875.22;5025299;28;19924;-83
2023/09/17 03:23:51;;;;;;;;;;;;;;;24.00;63.68;101878.75;5031650;28;19921;-83
2023/09/17 03:26:17;;;;;;;;;;;;;;;24.01;63.57;101877.91;5054545;28;19912;-85
2023/09/17 03:28:42;;;;;;;;;;;;;;;24.03;63.61;101872.59;5038740;28;20287;-85
2023/09/17 03:31:08;;;;;;;;;;;;;;;23.99;63.60;101866.28;5037430;28;20390;-85
2023/09/17 03:33:33;;;;;;;;;;;;;;;23.98;63.53;101873.41;5029851;28;19923;-85
2023/09/17 03:35:59;;;;;;;;;;;;;;;24.02;63.46;101871.66;5050811;28;20412;-85
2023/09/17 03:38:24;;;;;;;;;;;;;;;24.01;63.41;101875.22;5029871;28;20003;-85
2023/09/17 03:40:50;;;;;;;;;;;;;;;24.00;63.24;101873.41;5045873;28;19923;-86
2023/09/17 03:43:15;;;;;;;;;;;;;;;24.00;63.29;101869.84;5037195;28;19995;-85
2023/09/17 03:45:41;;;;;;;;;;;;;;;24.00;63.29;101869.84;5019085;28;20440;-84
2023/09/17 03:48:06;;;;;;;;;;;;;;;24.02;63.48;101871.66;5035033;28;20232;-83
2023/09/17 03:50:32;;;;;;;;;;;;;;;24.03;63.36;101877.94;5042754;28;19917;-84
2023/09/17 03:52:58;;;;;;;;;;;;;;;24.01;63.56;101882.34;5048991;28;19921;-85
2023/09/17 03:55:23;;;;;;;;;;;;;;;24.00;63.29;101875.19;5038344;28;19916;-85
2023/09/17 03:57:49;;;;;;;;;;;;;;;24.03;63.27;101875.25;5028805;28;19923;-84
2023/09/17 04:00:15;;;;;;;;;;;;;;;24.02;63.37;101874.34;5047008;28;20334;-83
2023/09/17 04:02:44;;;;;;;;;;;;;;;24.02;63.25;101877.00;5033864;28;21308;-84
2023/09/17 04:05:14;;;;;;;;;;;;;;;24.02;63.36;101878.78;5022439;28;19957;-82
2023/09/17 04:07:40;;;;;;;;;;;;;;;24.02;63.33;101868.13;5028369;28;19967;-82
2023/09/17 04:10:06;;;;;;;;;;;;;;;24.05;63.17;101881.53;5029078;28;19917;-82
2023/09/17 04:12:35;;;;;;;;;;;;;;;24.01;63.44;101877.91;5030493;28;19917;-82
2023/09/17 04:15:01;;;;;;;;;;;;;;;24.01;63.49;101880.56;5032839;28;19917;-82
2023/09/17 04:17:26;;;;;;;;;;;;;;;24.03;63.34;101888.59;5032389;28;19917;-82
2023/09/17 04:19:52;;;;;;;;;;;;;;;24.03;63.25;101885.94;5032951;28;19923;-85
2023/09/17 04:22:18;;;;;;;;;;;;;;;24.03;63.41;101873.47;5031227;28;19917;-86
2023/09/17 04:24:44;;;;;;;;;;;;;;;24.03;63.21;101877.94;5033227;28;20314;-83
2023/09/17 04:27:11;;;;;;;;;;;;;;;24.01;63.29;101875.22;5034497;28;20404;-85
2023/09/17 04:29:36;;;;;;;;;;;;;;;24.03;63.11;101880.59;5026855;28;20391;-84
2023/09/17 04:32:02;;;;;;;;;;;;;;;24.00;63.15;101884.09;5029569;28;19923;-84
2023/09/17 04:34:27;;;;;;;;;;;;;;;24.00;63.23;101878.75;5022512;28;20015;-85
2023/09/17 04:36:53;;;;;;;;;;;;;;;24.03;63.12;101880.59;5020690;28;19913;-83
2023/09/17 04:39:18;;;;;;;;;;;;;;;24.02;63.09;101877.00;5034718;28;19917;-87
2023/09/17 04:41:44;;;;;;;;;;;;;;;24.01;63.34;101879.69;5017069;28;20378;-84
2023/09/17 04:44:10;;;;;;;;;;;;;;;24.01;63.30;101880.56;5027671;28;20055;-85
2023/09/17 04:46:37;;;;;;;;;;;;;;;23.98;63.46;101885.84;5016420;28;19959;-85
2023/09/17 04:49:03;;;;;;;;;;;;;;;23.97;63.47;101892.06;5032218;28;19924;-84
2023/09/17 04:51:28;;;;;;;;;;;;;;;23.96;63.39;101890.25;5032770;28;20007;-84
2023/09/17 04:53:53;;;;;;;;;;;;;;;23.95;63.35;101888.47;5031415;28;19917;-85
2023/09/17 04:56:19;;;;;;;;;;;;;;;23.96;63.35;101888.50;5026624;28;20385;-84
2023/09/17 04:58:44;;;;;;;;;;;;;;;23.90;63.58;101891.06;5033654;28;19917;-85
2023/09/17 05:01:12;;;;;;;;;;;;;;;23.90;63.65;101895.50;5033072;28;20397;-85
2023/09/17 05:03:38;;;;;;;;;;;;;;;23.92;63.65;101891.09;5032329;28;19925;-83
2023/09/17 05:06:04;;;;;;;;;;;;;;;23.90;63.72;101891.06;5037709;28;19921;-84
2023/09/17 05:08:29;;;;;;;;;;;;;;;23.92;63.55;101888.44;4999448;28;19917;-84
2023/09/17 05:10:55;;;;;;;;;;;;;;;23.90;63.88;101888.41;5000617;28;20387;-83
2023/09/17 05:13:20;;;;;;;;;;;;;;;23.90;63.56;101893.72;5009992;28;19924;-83
2023/09/17 05:15:45;;;;;;;;;;;;;;;23.92;63.65;101888.44;5027667;28;19918;-83
2023/09/17 05:18:11;;;;;;;;;;;;;;;23.92;63.70;101893.75;5028982;28;20020;-84
2023/09/17 05:20:39;;;;;;;;;;;;;;;23.88;63.75;101900.81;5023593;28;20306;-87
2023/09/17 05:23:05;;;;;;;;;;;;;;;23.92;63.54;101896.44;5053133;28;20007;-88
2023/09/17 05:25:31;;;;;;;;;;;;;;;23.96;63.39;101892.91;5031117;28;19919;-87
2023/09/17 05:27:56;;;;;;;;;;;;;;;23.93;63.47;101893.78;5008768;28;20386;-87
2023/09/17 05:30:22;;;;;;;;;;;;;;;23.97;63.21;101890.28;5008488;28;19925;-88
2023/09/17 05:32:47;;;;;;;;;;;;;;;23.97;63.24;101894.72;5015397;28;19921;-87
2023/09/17 05:35:13;;;;;;;;;;;;;;;23.99;63.33;101903.66;5015540;28;20378;-87
2023/09/17 05:37:38;;;;;;;;;;;;;;;23.94;63.45;101906.25;5041237;28;19920;-84
2023/09/17 05:40:05;;;;;;;;;;;;;;;23.97;63.17;101895.63;5025501;28;19924;-88
2023/09/17 05:42:31;;;;;;;;;;;;;;;23.97;63.05;101900.94;5020068;28;19917;-87
2023/09/17 05:44:56;;;;;;;;;;;;;;;23.98;63.34;101901.84;5010952;28;19944;-87
2023/09/17 05:47:22;;;;;;;;;;;;;;;23.97;63.24;101895.63;5013041;28;20405;-89
2023/09/17 05:49:47;;;;;;;;;;;;;;;24.00;63.00;101900.09;4996384;28;19971;-85
2023/09/17 05:52:13;;;;;;;;;;;;;;;23.99;63.05;101892.97;5032382;28;20341;-85
2023/09/17 05:54:38;;;;;;;;;;;;;;;24.00;63.12;101900.09;5027367;28;19928;-86
2023/09/17 05:57:04;;;;;;;;;;;;;;;23.98;62.96;101896.50;5025709;28;19917;-86
2023/09/17 05:59:29;;;;;;;;;;;;;;;24.01;63.22;101906.34;5038827;28;19917;-85
2023/09/17 06:01:55;;;;;;;;;;;;;;;24.01;63.10;101906.34;5029851;28;20409;-86
2023/09/17 06:04:21;;;;;;;;;;;;;;;23.96;63.46;101909.84;5032961;28;20460;-83
2023/09/17 06:06:46;;;;;;;;;;;;;;;24.00;63.26;101912.56;5051877;28;19920;-85
2023/09/17 06:09:12;;;;;;;;;;;;;;;23.98;63.40;101904.50;5044990;28;19913;-84
2023/09/17 06:11:37;;;;;;;;;;;;;;;23.97;63.28;101914.28;5038181;28;20433;-85
2023/09/17 06:14:03;;;;;;;;;;;;;;;23.94;63.42;101908.03;5038513;28;20368;-85
2023/09/17 06:16:28;;;;;;;;;;;;;;;23.96;63.24;101911.59;5021283;28;19924;-84
2023/09/17 06:18:54;;;;;;;;;;;;;;;23.98;63.15;101910.78;5051417;28;20410;-86
2023/09/17 06:21:20;;;;;;;;;;;;;;;24.00;63.13;101918.78;5033502;28;19952;-87
2023/09/17 06:23:47;;;;;;;;;;;;;;;24.00;63.23;101921.44;5034177;28;19971;-87
2023/09/17 06:26:12;;;;;;;;;;;;;;;23.98;63.40;101918.78;5031041;28;20116;-87
2023/09/17 06:28:38;;;;;;;;;;;;;;;24.01;63.21;101919.69;5025881;28;20405;-87
2023/09/17 06:31:03;;;;;;;;;;;;;;;24.01;63.13;101920.59;5039257;28;20221;-86
2023/09/17 06:33:29;;;;;;;;;;;;;;;24.00;63.38;101925.91;5051244;28;20304;-86
2023/09/17 06:35:54;;;;;;;;;;;;;;;24.03;63.14;101915.28;5056400;28;20381;-85
2023/09/17 06:38:20;;;;;;;;;;;;;;;24.04;63.10;101925.06;5024296;28;19913;-85
2023/09/17 06:40:45;;;;;;;;;;;;;;;24.05;63.20;101922.44;5045629;28;19920;-86
2023/09/17 06:43:12;;;;;;;;;;;;;;;24.06;63.19;101923.34;5048191;28;20381;-86
2023/09/17 06:45:38;;;;;;;;;;;;;;;24.05;63.04;101925.13;5042596;28;19963;-85
2023/09/17 06:48:03;;;;;;;;;;;;;;;24.06;63.20;101923.34;5031603;28;19944;-87
2023/09/17 06:50:29;;;;;;;;;;;;;;;24.03;63.06;101931.31;5032397;28;19920;-85
2023/09/17 06:52:56;;;;;;;;;;;;;;;23.96;63.47;101932.94;5041926;28;19924;-92
2023/09/17 06:55:22;;;;;;;;;;;;;;;23.92;64.26;101929.34;5018576;28;19923;-91
2023/09/17 06:57:48;;;;;;;;;;;;;;;23.85;64.43;101926.53;5018098;28;20003;-92
2023/09/17 07:00:17;;;;;;;;;;;;;;;23.92;64.04;101924.00;5030056;28;19972;-93
2023/09/17 07:02:43;;;;;;;;;;;;;;;24.14;63.47;101930.59;5028974;28;19924;-85
2023/09/17 07:05:10;;;;;;;;;;;;;;;24.22;61.83;101932.50;5038579;28;19924;-85
2023/09/17 07:07:36;;;;;;;;;;;;;;;24.37;60.37;101927.41;5032914;28;19917;-85
2023/09/17 07:10:02;;;;;;;;;;;;;;;24.36;59.65;101926.50;5031970;28;19947;-85
2023/09/17 07:12:27;;;;;;;;;;;;;;;24.34;59.41;101930.00;5044462;28;19917;-85
2023/09/17 07:14:53;;;;;;;;;;;;;;;24.51;58.47;101923.22;5041383;28;19917;-84
2023/09/17 07:17:18;;;;;;;;;;;;;;;24.51;57.50;101922.28;5044945;28;20449;-84
2023/09/17 07:19:44;;;;;;;;;;;;;;;24.46;57.52;101926.66;5042292;28;20381;-85
2023/09/17 07:22:14;;;;;;;;;;;;;;;24.45;57.36;101930.16;5045842;28;20420;-84
2023/09/17 07:24:40;;;;;;;;;;;;;;;24.54;57.13;101933.03;5027974;28;19971;-84
2023/09/17 07:27:06;;;;;;;;;;;;;;;24.50;56.97;101920.50;5042505;28;19917;-85
2023/09/17 07:29:31;;;;;;;;;;;;;;;24.49;56.76;101930.31;5046322;28;19920;-84
2023/09/17 07:31:57;;;;;;;;;;;;;;;24.55;57.87;101933.06;5046324;28;19913;-84
2023/09/17 07:34:24;;;;;;;;;;;;;;;24.62;59.20;101928.72;5042436;28;19916;-82
2023/09/17 07:36:50;;;;;;;;;;;;;;;24.52;58.81;101925.00;5047078;28;19989;-84
2023/09/17 07:39:15;;;;;;;;;;;;;;;24.51;58.39;101922.28;5046636;28;20350;-83
2023/09/17 07:41:41;;;;;;;;;;;;;;;24.50;58.46;101931.19;5051375;28;19924;-83
2023/09/17 07:44:06;;;;;;;;;;;;;;;24.55;58.32;101934.81;5044887;28;19928;-84
2023/09/17 07:46:32;;;;;;;;;;;;;;;24.53;58.02;101940.16;5050540;28;19963;-82
2023/09/17 07:49:00;;;;;;;;;;;;;;;24.62;57.80;101931.38;5049630;28;19973;-82
2023/09/17 07:51:25;;;;;;;;;;;;;;;24.63;57.70;101934.94;5052046;28;19920;-83
2023/09/17 07:53:51;;;;;;;;;;;;;;;24.67;57.73;101932.34;5053486;28;19912;-85
2023/09/17 07:56:17;;;;;;;;;;;;;;;24.67;57.37;101934.13;5047075;28;19975;-84
2023/09/17 07:58:42;;;;;;;;;;;;;;;24.66;57.63;101938.56;5050837;28;20309;-85
2023/09/17 08:01:07;;;;;;;;;;;;;;;24.67;57.55;101936.78;5046732;28;20396;-81
2023/09/17 08:03:33;;;;;;;;;;;;;;;24.62;57.24;101934.06;5051612;28;19970;-82
2023/09/17 08:05:59;;;;;;;;;;;;;;;24.77;56.97;101944.06;5047810;28;19979;-84
2023/09/17 08:08:26;;;;;;;;;;;;;;;24.75;56.77;101933.34;5034994;28;19913;-82
2023/09/17 08:10:52;;;;;;;;;;;;;;;24.63;57.16;101925.16;5054979;28;20275;-83
2023/09/17 08:13:20;;;;;;;;;;;;;;;24.71;56.68;101936.84;5037070;28;20409;-83
2023/09/17 08:15:51;;;;;;;;;;;;;;;24.69;56.73;101929.69;5051893;28;19967;-83
2023/09/17 08:18:17;;;;;;;;;;;;;;;24.67;57.36;101926.09;5036031;28;20407;-84
2023/09/17 08:20:43;;;;;;;;;;;;;;;24.76;56.80;101927.13;5040928;28;20003;-84
2023/09/17 08:23:08;;;;;;;;;;;;;;;24.68;57.15;101931.47;5055828;28;19912;-82
2023/09/17 08:25:34;;;;;;;;;;;;;;;24.75;56.60;101938.69;5052194;28;19920;-83
2023/09/17 08:27:59;;;;;;;;;;;;;;;24.75;56.92;101940.47;5052453;28;20020;-83
2023/09/17 08:30:25;;;;;;;;;;;;;;;24.81;56.40;101942.31;5033830;28;20559;-84
2023/09/17 08:32:50;;;;;;;;;;;;;;;24.75;56.67;101935.13;5036277;28;20388;-83
2023/09/17 08:35:15;;;;;;;;;;;;;;;24.77;56.49;101939.59;5053403;28;19936;-84
2023/09/17 08:37:42;;;;;;;;;;;;;;;24.77;56.57;101938.72;5052527;28;20001;-84
2023/09/17 08:40:11;;;;;;;;;;;;;;;24.90;56.32;101934.44;5050119;28;20404;-83
2023/09/17 08:42:45;;;;;;;;;;;;;;;24.88;56.34;101934.41;5051965;28;19917;-84
2023/09/17 08:45:11;;;;;;;;;;;;;;;24.79;56.21;101926.28;5017564;28;20011;-83
2023/09/17 08:47:40;;;;;;;;;;;;;;;24.81;56.18;101931.63;5049922;28;20004;-84
2023/09/17 08:50:08;;;;;;;;;;;;;;;24.77;56.12;101925.34;5021462;28;20370;-84
2023/09/17 08:52:33;;;;;;;;;;;;;;;24.73;56.08;101926.19;5039692;28;20290;-83
2023/09/17 08:54:59;;;;;;;;;;;;;;;24.77;55.99;101928.03;5035613;28;19916;-83
2023/09/17 08:57:24;;;;;;;;;;;;;;;24.71;56.18;101926.16;5052208;28;19916;-83
2023/09/17 08:59:57;;;;;;;;;;;;;;;24.70;56.31;101926.13;5052982;28;19975;-84
2023/09/17 09:02:27;;;;;;;;;;;;;;;24.85;56.15;101925.44;5021949;28;19913;-84
2023/09/17 09:04:53;;;;;;;;;;;;;;;24.85;55.55;101920.09;5035031;28;19917;-84
2023/09/17 09:07:19;;;;;;;;;;;;;;;24.80;55.95;101917.38;5033686;28;19948;-84
2023/09/17 09:09:46;;;;;;;;;;;;;;;24.91;55.79;101917.50;5027673;28;19922;-83
2023/09/17 09:12:11;;;;;;;;;;;;;;;24.86;55.98;101916.56;5038579;28;19913;-84
2023/09/17 09:14:38;;;;;;;;;;;;;;;24.87;55.78;101923.69;5037268;28;20031;-84
2023/09/17 09:17:03;;;;;;;;;;;;;;;24.89;55.97;101928.19;5051248;28;19917;-87
2023/09/17 09:19:28;;;;;;;;;;;;;;;24.97;58.41;101918.47;5023717;28;20393;-91
2023/09/17 09:21:56;;;;;;;;;;;;;;;25.06;59.89;101915.06;5053871;28;19917;-91
2023/09/17 09:24:23;;;;;;;;;;;;;;;25.00;60.53;101917.66;5022067;28;20015;-92
2023/09/17 09:26:49;;;;;;;;;;;;;;;24.94;62.46;101910.44;5035463;28;20321;-84
2023/09/17 09:29:14;;;;;;;;;;;;;;;25.05;60.16;101913.25;5030271;28;20379;-83
2023/09/17 09:31:40;;;;;;;;;;;;;;;25.19;58.55;101914.31;5043585;28;19919;-83
2023/09/17 09:34:06;;;;;;;;;;;;;;;25.11;57.78;101909.75;5052127;28;19920;-84
2023/09/17 09:36:33;;;;;;;;;;;;;;;25.13;57.20;101913.34;5041549;28;19913;-84
2023/09/17 09:38:59;;;;;;;;;;;;;;;25.17;56.51;101913.41;5040391;28;19967;-83
2023/09/17 09:41:25;;;;;;;;;;;;;;;25.23;56.26;101914.38;5035451;28;19920;-83
2023/09/17 09:43:51;;;;;;;;;;;;;;;25.21;55.89;101908.13;5044736;28;19927;-83
2023/09/17 09:46:17;;;;;;;;;;;;;;;25.15;55.56;101909.81;5043273;28;19921;-82
2023/09/17 09:48:43;;;;;;;;;;;;;;;25.12;55.77;101908.88;5050371;28;20115;-84
2023/09/17 09:51:09;;;;;;;;;;;;;;;25.12;55.36;101909.75;5052536;28;19913;-84
2023/09/17 09:53:34;;;;;;;;;;;;;;;25.26;54.95;101907.28;5051446;28;19916;-83
2023/09/17 09:56:00;;;;;;;;;;;;;;;25.24;54.84;101916.19;5052096;28;19919;-84
2023/09/17 09:58:25;;;;;;;;;;;;;;;25.21;54.80;101914.38;5052105;28;19966;-84
2023/09/17 10:00:51;;;;;;;;;;;;;;;25.31;54.60;101923.38;5036988;28;19913;-84
2023/09/17 10:03:20;;;;;;;;;;;;;;;25.28;54.32;101916.22;5051324;28;19912;-84
2023/09/17 10:05:45;;;;;;;;;;;;;;;25.29;54.06;101917.13;5018317;28;19924;-82
2023/09/17 10:08:17;;;;;;;;;;;;;;;25.21;54.22;101919.72;5044617;28;20450;-84
2023/09/17 10:10:42;;;;;;;;;;;;;;;25.26;54.01;101909.09;5028829;28;19919;-84
2023/09/17 10:13:08;;;;;;;;;;;;;;;25.25;53.94;101917.97;5034269;28;19917;-84
2023/09/17 10:15:37;;;;;;;;;;;;;;;25.31;53.67;101920.72;5022784;28;20602;-84
2023/09/17 10:18:04;;;;;;;;;;;;;;;25.23;53.65;101936.69;5036992;28;19970;-83
2023/09/17 10:20:29;;;;;;;;;;;;;;;25.31;53.34;101932.31;5034243;28;20651;-83
2023/09/17 10:22:55;;;;;;;;;;;;;;;25.33;53.32;101935.00;5033555;28;19912;-84
2023/09/17 10:25:20;;;;;;;;;;;;;;;25.31;52.98;101932.31;5025088;28;20007;-84
2023/09/17 10:27:46;;;;;;;;;;;;;;;25.32;53.51;101934.09;5034152;28;19917;-84
2023/09/17 10:30:14;;;;;;;;;;;;;;;25.17;54.20;101934.78;5026172;28;19917;-83
2023/09/17 10:32:40;;;;;;;;;;;;;;;25.19;54.21;101945.50;5029475;28;19925;-84
2023/09/17 10:35:05;;;;;;;;;;;;;;;25.33;53.94;101951.94;5030786;28;20310;-84
2023/09/17 10:37:31;;;;;;;;;;;;;;;25.33;53.79;101949.25;5050046;28;19916;-84
2023/09/17 10:39:57;;;;;;;;;;;;;;;25.49;53.33;101946.78;5039992;28;20040;-84
2023/09/17 10:42:22;;;;;;;;;;;;;;;25.42;53.49;101958.28;5045900;28;19924;-83
2023/09/17 10:44:49;;;;;;;;;;;;;;;25.39;53.37;101959.16;5038328;28;19921;-83
2023/09/17 10:47:14;;;;;;;;;;;;;;;25.43;56.27;101962.75;5038165;28;19917;-83
2023/09/17 10:49:40;;;;;;;;;;;;;;;25.38;55.48;101957.38;5047265;28;19924;-84
2023/09/17 10:52:07;;;;;;;;;;;;;;;25.32;54.83;101963.53;5038875;28;19923;-84
2023/09/17 10:54:33;;;;;;;;;;;;;;;25.41;54.10;101957.38;5043762;28;19924;-83
2023/09/17 10:57:01;;;;;;;;;;;;;;;25.43;54.04;101960.09;5050453;28;19923;-84
2023/09/17 10:59:27;;;;;;;;;;;;;;;25.44;53.95;101957.41;5027577;28;20301;-83
2023/09/17 11:01:52;;;;;;;;;;;;;;;25.38;53.77;101958.25;5031213;28;20412;-84
2023/09/17 11:04:19;;;;;;;;;;;;;;;25.45;53.50;101952.97;5032556;28;20305;-84
2023/09/17 11:06:45;;;;;;;;;;;;;;;25.42;53.67;101958.28;5054278;28;19921;-84
2023/09/17 11:09:11;;;;;;;;;;;;;;;25.42;53.68;101955.59;5046757;28;19916;-83
2023/09/17 11:11:36;;;;;;;;;;;;;;;25.46;53.47;101955.66;5032847;28;19917;-83
2023/09/17 11:14:04;;;;;;;;;;;;;;;25.41;53.28;101953.81;5044442;28;19924;-83
2023/09/17 11:16:30;;;;;;;;;;;;;;;25.44;53.08;101946.72;5030109;28;19921;-82
2023/09/17 11:19:11;;;;;;;;;;;;;;;25.34;53.36;101945.72;5047080;28;20352;-85
2023/09/17 11:21:38;;;;;;;;;;;;;;;25.38;52.83;101944.88;5053164;28;20499;-85
2023/09/17 11:24:10;;;;;;;;;;;;;;;25.57;52.46;101950.44;5043973;28;20313;-85
2023/09/17 11:26:37;;;;;;;;;;;;;;;25.46;52.63;101957.44;5043553;28;19917;-87
2023/09/17 11:29:05;;;;;;;;;;;;;;;25.37;52.77;101955.56;5031371;28;19972;-86
2023/09/17 11:31:32;;;;;;;;;;;;;;;25.37;52.58;101955.56;5033230;28;19917;-85
2023/09/17 11:33:58;;;;;;;;;;;;;;;25.43;52.59;101962.75;5051069;28;19920;-84
2023/09/17 11:36:23;;;;;;;;;;;;;;;25.36;52.32;101962.69;5028161;28;19917;-86
2023/09/17 11:38:48;;;;;;;;;;;;;;;25.44;52.11;101967.22;5033285;28;19921;-87
2023/09/17 11:41:23;;;;;;;;;;;;;;;25.50;52.13;101960.16;5050730;28;20322;-85
2023/09/17 11:43:50;;;;;;;;;;;;;;;25.42;52.31;101961.88;5034229;28;19924;-86
2023/09/17 11:46:16;;;;;;;;;;;;;;;25.39;52.13;101962.72;5033622;28;19912;-86
2023/09/17 11:48:44;;;;;;;;;;;;;;;25.39;52.33;101959.16;5047171;28;19973;-86
2023/09/17 11:51:29;;;;;;;;;;;;;;;25.37;52.05;101961.78;5032709;28;20358;-86
2023/09/17 11:53:56;;;;;;;;;;;;;;;25.48;51.82;101950.31;5050315;28;19916;-87
2023/09/17 11:56:22;;;;;;;;;;;;;;;25.46;51.59;101961.00;5040259;28;20565;-86
2023/09/17 11:58:58;;;;;;;;;;;;;;;25.43;51.71;101963.66;5050649;28;19964;-86
2023/09/17 12:01:24;;;;;;;;;;;;;;;25.45;51.50;101953.88;5032088;28;20016;-84
2023/09/17 12:03:49;;;;;;;;;;;;;;;25.45;51.88;101964.56;5032716;28;19924;-86
2023/09/17 12:06:17;;;;;;;;;;;;;;;25.45;51.98;101952.97;5048189;28;19921;-86
2023/09/17 12:08:43;;;;;;;;;;;;;;;25.48;51.51;101950.31;5029128;28;20011;-85
2023/09/17 12:11:21;;;;;;;;;;;;;;;25.45;51.81;101955.66;5042965;28;19913;-85
2023/09/17 12:13:53;;;;;;;;;;;;;;;25.47;51.84;101951.22;5041824;28;19975;-87
2023/09/17 12:16:19;;;;;;;;;;;;;;;25.50;51.69;101938.75;5031828;28;20304;-87
2023/09/17 12:18:44;;;;;;;;;;;;;;;25.56;51.53;101944.19;5033093;28;19928;-88
2023/09/17 12:21:10;;;;;;;;;;;;;;;25.45;51.48;101944.97;5031550;28;20412;-87
2023/09/17 12:24:28;;;;;;;;;;;;;;;25.44;51.51;101944.03;5033595;28;19917;-87
2023/09/17 12:29:27;;;;;;;;;;;;;;;25.47;51.41;101941.41;5035876;28;19971;-87
2023/09/17 12:31:52;;;;;;;;;;;;;;;25.44;51.43;101953.84;5035523;28;20011;-88
2023/09/17 12:34:19;;;;;;;;;;;;;;;25.50;51.45;101945.88;5038415;28;20405;-87